Time;durP1;ratioP1;P1;durP2;ratioP2;P2;SDS_P1;SDS_P2;PMS_P1;PMS_P2;Temp;Humidity;BMP_temperature;BMP_pressure;BME280_temperature;BME280_humidity;BME280_pressure;Samples;Min_cycle;Max_cycle;Signal;HPM_P1;HPM_P2
2022/06/04 00:01:33;;;;;;;12.68;5.82;;;;;;;20.89;68.65;101022.31;4949165;28;20027;-73
2022/06/04 00:03:58;;;;;;;7.15;4.88;;;;;;;20.32;69.53;100945.00;4957215;28;20046;-72
2022/06/04 00:06:24;;;;;;;10.35;5.50;;;;;;;20.73;69.31;101013.91;4949325;28;20047;-73
2022/06/04 00:08:50;;;;;;;11.02;6.35;;;;;;;20.32;69.49;100941.44;4950692;28;21329;-72
2022/06/04 00:16:45;;;;;;;11.10;5.55;;;;;;;20.08;71.47;100951.94;4943810;28;20566;-71
2022/06/04 00:19:13;;;;;;;8.10;5.15;;;;;;;20.17;70.94;100956.13;4951343;28;20122;-72
2022/06/04 00:21:39;;;;;;;9.63;6.43;;;;;;;19.95;71.13;100935.47;4933841;28;20058;-72
2022/06/04 00:24:06;;;;;;;17.60;6.57;;;;;;;20.02;70.79;100952.16;4947195;28;20047;-72
2022/06/04 00:26:32;;;;;;;8.50;5.32;;;;;;;20.24;70.60;100955.88;4940990;28;20057;-73
2022/06/04 00:28:58;;;;;;;11.73;6.55;;;;;;;20.09;70.75;100976.78;4956086;28;20054;-73
2022/06/04 00:31:23;;;;;;;8.18;5.60;;;;;;;20.26;70.81;100953.16;4952686;28;20031;-73
2022/06/04 00:33:49;;;;;;;11.55;5.40;;;;;;;20.38;71.33;101003.41;4935978;28;20034;-74
2022/06/04 00:36:15;;;;;;;9.68;5.70;;;;;;;20.45;70.20;101009.44;4954687;28;20097;-73
2022/06/04 00:38:48;;;;;;;7.78;6.03;;;;;;;20.41;71.17;101010.44;4953501;28;20058;-73
2022/06/04 00:41:28;;;;;;;5.78;3.85;;;;;;;20.53;70.00;100998.50;4959213;28;20458;-73
2022/06/04 00:44:25;;;;;;;7.53;5.53;;;;;;;20.38;69.55;100995.41;4957376;28;20043;-74
2022/06/04 00:47:13;;;;;;;13.10;6.22;;;;;;;19.94;69.09;100930.19;4954395;28;20051;-72
2022/06/04 00:49:39;;;;;;;6.55;4.43;;;;;;;20.49;68.92;100989.75;4951445;28;20055;-74
2022/06/04 00:52:12;;;;;;;9.85;5.68;;;;;;;20.36;69.89;100989.25;4947181;28;20193;-72
2022/06/04 00:54:39;;;;;;;8.07;6.18;;;;;;;20.29;69.79;100993.03;4941515;28;20066;-72
2022/06/04 00:57:34;;;;;;;10.70;5.95;;;;;;;19.97;69.38;100946.94;4954188;28;20050;-72
2022/06/04 01:00:32;;;;;;;8.68;5.88;;;;;;;20.20;70.23;101011.97;4955064;28;20172;-72
2022/06/04 01:03:25;;;;;;;10.25;4.82;;;;;;;19.91;69.25;100932.94;4944370;28;20717;-72
2022/06/04 01:05:50;;;;;;;;;;;;;;;20.44;68.77;100997.03;4958487;28;20051;-73
2022/06/04 01:08:47;;;;;;;13.80;5.40;;;;;;;20.24;69.27;101016.28;4954412;28;19930;-73
2022/06/04 01:11:37;;;;;;;7.18;5.18;;;;;;;20.31;68.72;101001.84;4953242;28;20519;-72
2022/06/04 01:14:43;;;;;;;9.43;6.47;;;;;;;20.22;69.27;101005.69;4937480;28;20385;-72
2022/06/04 01:17:31;;;;;;;7.95;5.07;;;;;;;20.25;68.94;101007.38;4919645;28;20057;-74
2022/06/04 01:20:25;;;;;;;9.38;5.97;;;;;;;20.41;68.00;101000.66;4903808;28;20062;-72
2022/06/04 01:23:09;;;;;;;7.97;4.95;;;;;;;19.92;67.32;100938.19;4952387;28;20044;-71
2022/06/04 01:25:47;;;;;;;18.05;4.88;;;;;;;20.24;67.96;101005.63;4952148;28;20043;-71
2022/06/04 01:28:16;;;;;;;8.57;5.32;;;;;;;19.99;67.13;100941.56;4955619;28;20082;-71
2022/06/04 01:30:54;;;;;;;7.63;5.28;;;;;;;19.89;67.54;100924.13;4955948;28;20054;-72
2022/06/04 01:33:36;;;;;;;8.15;4.88;;;;;;;20.14;68.57;100996.19;4949592;28;20142;-72
2022/06/04 01:36:19;;;;;;;6.75;5.03;;;;;;;19.39;69.19;100911.34;4951310;28;20061;-72
2022/06/04 01:39:09;;;;;;;7.95;4.95;;;;;;;19.59;68.37;100913.44;4951224;28;20116;-71
2022/06/04 01:41:37;;;;;;;7.57;5.55;;;;;;;19.98;68.23;100975.31;4947479;28;20071;-72
2022/06/04 01:44:09;;;;;;;7.55;5.32;;;;;;;20.12;68.21;100984.69;4953850;28;20053;-71
2022/06/04 01:46:42;;;;;;;6.47;4.40;;;;;;;19.63;68.65;100928.41;4936862;28;20053;-72
2022/06/04 01:49:36;;;;;;;12.35;5.25;;;;;;;19.77;68.28;100934.22;4951889;28;20062;-72
2022/06/04 01:52:11;;;;;;;11.65;6.20;;;;;;;19.62;67.33;100902.72;4909734;29;20351;-72
2022/06/04 01:54:45;;;;;;;6.20;4.50;;;;;;;20.21;67.39;100989.75;4915079;29;20050;-72
2022/06/04 01:57:23;;;;;;;9.45;4.38;;;;;;;19.95;68.63;100967.44;4915360;29;20056;-72
2022/06/04 01:59:56;;;;;;;7.18;4.40;;;;;;;19.87;68.89;100965.91;4913898;29;20048;-72
2022/06/04 02:02:36;;;;;;;6.80;5.18;;;;;;;19.45;68.61;100897.84;4916962;29;20051;-72
2022/06/04 02:05:05;;;;;;;12.10;5.47;;;;;;;19.58;69.18;100915.22;4897594;29;20068;-72
2022/06/04 02:07:38;;;;;;;9.13;5.63;;;;;;;19.78;69.76;100981.25;4933641;28;20035;-72
2022/06/04 02:10:07;;;;;;;7.18;4.88;;;;;;;19.45;68.88;100891.66;4916752;29;20063;-72
2022/06/04 02:12:35;;;;;;;12.00;5.40;;;;;;;19.63;68.97;100911.56;4910197;29;20088;-71
2022/06/04 02:15:09;;;;;;;8.68;5.97;;;;;;;19.76;69.44;100977.75;4932542;29;20107;-72
2022/06/04 02:17:39;;;;;;;8.85;5.35;;;;;;;19.32;69.65;100910.66;4919326;29;20058;-70
2022/06/04 02:20:05;;;;;;;9.93;5.65;;;;;;;19.61;70.27;100970.16;4915033;29;20051;-71
2022/06/04 02:22:31;;;;;;;8.15;5.78;;;;;;;19.58;69.92;100975.59;4915735;29;20535;-70
2022/06/04 02:25:00;;;;;;;7.57;5.07;;;;;;;19.71;69.70;100978.78;4918264;29;20036;-70
2022/06/04 02:27:27;;;;;;;8.32;5.65;;;;;;;19.75;69.44;100983.13;4915312;29;20504;-71
2022/06/04 02:29:52;;;;;;;9.23;6.13;;;;;;;19.25;70.02;100918.84;4906570;29;20055;-71
2022/06/04 02:32:48;;;;;;;10.07;6.57;;;;;;;19.48;70.08;100969.66;4912722;29;20051;-71
2022/06/04 02:35:25;;;;;;;8.32;5.25;;;;;;;19.47;70.05;100980.34;4911719;29;20056;-71
2022/06/04 02:38:00;;;;;;;7.97;4.88;;;;;;;19.29;70.01;100973.72;4921226;29;20678;-71
2022/06/04 02:40:31;;;;;;;9.98;5.97;;;;;;;19.30;69.52;100939.09;4917089;29;20307;-71
2022/06/04 02:43:07;;;;;;;8.00;5.45;;;;;;;19.10;69.78;100915.69;4914284;29;20879;-72
2022/06/04 02:45:44;;;;;;;9.90;5.55;;;;;;;19.11;69.74;100917.44;4929967;29;20052;-72
2022/06/04 02:48:18;;;;;;;10.95;6.32;;;;;;;19.70;69.51;100985.06;4917337;29;20043;-72
2022/06/04 02:50:53;;;;;;;13.48;6.53;;;;;;;19.14;69.83;100925.31;4921244;28;20154;-71
2022/06/04 02:53:20;;;;;;;10.02;5.57;;;;;;;18.74;70.65;100907.75;4934627;28;20085;-71
2022/06/04 02:55:53;;;;;;;12.65;5.63;;;;;;;18.83;71.34;100927.06;4936621;28;20044;-71
2022/06/04 02:58:20;;;;;;;;;;;;;;;19.10;71.00;100955.56;4936501;28;20032;-73
2022/06/04 03:00:49;;;;;;;9.13;5.10;;;;;;;19.58;69.80;101015.53;4937517;28;19918;-72
2022/06/04 03:03:16;;;;;;;6.93;5.03;;;;;;;19.38;70.23;100997.41;4925068;28;20039;-71
2022/06/04 03:05:59;;;;;;;11.60;4.75;;;;;;;19.13;70.75;100994.56;4930262;28;20059;-73
2022/06/04 03:08:31;;;;;;;7.63;4.18;;;;;;;19.35;69.92;100982.41;4934603;28;20054;-72
2022/06/04 03:10:58;;;;;;;7.40;4.90;;;;;;;19.04;69.32;100950.44;4933700;28;21160;-72
2022/06/04 03:13:24;;;;;;;6.22;4.72;;;;;;;19.24;70.36;101013.75;4928098;28;20035;-72
2022/06/04 03:15:50;;;;;;;6.03;4.68;;;;;;;18.93;69.13;100941.88;4935579;28;20071;-72
2022/06/04 03:18:17;;;;;;;10.13;5.53;;;;;;;19.11;69.46;100978.63;4930803;28;20043;-71
2022/06/04 03:20:43;;;;;;;10.20;5.15;;;;;;;19.37;69.76;101028.50;4928517;28;20136;-72
2022/06/04 03:23:08;;;;;;;10.25;5.45;;;;;;;18.86;69.50;100943.81;4934183;28;20298;-72
2022/06/04 03:25:36;;;;;;;8.68;5.28;;;;;;;18.48;69.00;100860.56;4950329;28;21137;-72
2022/06/04 03:28:03;;;;;;;8.10;4.90;;;;;;;19.55;68.10;101034.22;4938557;28;20054;-72
2022/06/04 03:30:29;;;;;;;7.03;5.35;;;;;;;19.49;69.05;101037.94;4929588;28;20055;-72
2022/06/04 03:32:56;;;;;;;11.68;5.53;;;;;;;19.07;68.81;100949.47;4930168;28;20047;-72
2022/06/04 03:35:22;;;;;;;7.22;4.50;;;;;;;19.34;68.36;100972.69;4932572;28;20175;-71
2022/06/04 03:37:48;;;;;;;9.23;4.80;;;;;;;19.10;68.74;100960.91;4935541;28;20569;-71
2022/06/04 03:40:14;;;;;;;8.73;5.15;;;;;;;19.19;68.94;100965.09;4939542;28;20039;-71
2022/06/04 03:42:41;;;;;;;5.82;4.57;;;;;;;19.68;68.61;101035.66;4938157;28;20638;-72
2022/06/04 03:45:08;;;;;;;8.40;5.53;;;;;;;19.00;69.09;100966.53;4935117;28;20423;-72
2022/06/04 03:47:36;;;;;;;5.88;3.60;;;;;;;19.11;68.18;100975.09;4932814;28;20062;-71
2022/06/04 03:50:20;;;;;;;8.82;4.72;;;;;;;19.15;68.59;100963.44;4932412;28;20098;-71
2022/06/04 03:52:47;;;;;;;10.07;4.80;;;;;;;19.62;68.94;101043.81;4955784;28;20138;-72
2022/06/04 03:55:15;;;;;;;7.07;5.00;;;;;;;19.26;69.13;100997.75;4957177;28;20455;-71
2022/06/04 03:57:48;;;;;;;19.15;5.80;;;;;;;19.42;69.31;101028.38;4952436;28;20054;-71
2022/06/04 04:00:30;;;;;;;11.30;5.25;;;;;;;19.48;69.01;101014.00;4949168;28;20502;-72
2022/06/04 04:03:01;;;;;;;14.43;4.53;;;;;;;19.54;68.53;101043.13;4954043;28;20046;-71
2022/06/04 04:05:30;;;;;;;6.30;4.47;;;;;;;19.18;68.63;100982.88;4940924;28;20106;-71
2022/06/04 04:07:57;;;;;;;7.53;4.68;;;;;;;19.09;68.51;100968.94;4953268;28;20090;-71
2022/06/04 04:10:25;;;;;;;17.88;6.07;;;;;;;19.58;68.98;101029.69;4937116;28;20113;-72
2022/06/04 04:12:51;;;;;;;6.78;4.47;;;;;;;19.70;68.42;101035.63;4950696;28;20041;-72
2022/06/04 04:15:17;;;;;;;10.50;5.78;;;;;;;19.88;68.00;101050.22;4946332;28;20059;-70
2022/06/04 04:17:44;;;;;;;7.07;5.00;;;;;;;19.25;68.72;100975.59;4947704;28;20549;-72
2022/06/04 04:20:15;;;;;;;7.43;5.18;;;;;;;19.63;68.48;101023.38;4952741;28;20070;-72
2022/06/04 04:22:41;;;;;;;9.02;6.35;;;;;;;19.78;68.32;101034.53;4932297;28;20753;-72
2022/06/04 04:25:07;;;;;;;9.00;5.18;;;;;;;19.45;68.47;100982.16;4953359;28;20043;-71
2022/06/04 04:27:33;;;;;;;8.88;4.38;;;;;;;19.60;67.90;100950.66;4937227;28;20067;-72
2022/06/04 04:29:58;;;;;;;12.23;5.38;;;;;;;19.96;67.62;101019.78;4936880;28;20055;-71
2022/06/04 04:32:24;;;;;;;9.55;4.93;;;;;;;19.66;67.14;100970.03;4956022;28;20062;-71
2022/06/04 04:34:50;;;;;;;8.25;4.70;;;;;;;19.55;65.79;100955.25;4949351;28;20077;-73
2022/06/04 04:37:15;;;;;;;10.20;5.60;;;;;;;20.39;65.64;101041.59;4956924;28;20085;-72
2022/06/04 04:39:41;;;;;;;8.68;4.55;;;;;;;20.62;64.93;101038.25;4950545;28;20824;-73
2022/06/04 04:42:07;;;;;;;10.48;5.30;;;;;;;20.23;64.31;100974.59;4951687;28;20043;-72
2022/06/04 04:44:33;;;;;;;9.02;4.78;;;;;;;20.35;63.35;100968.88;4932158;28;20062;-72
2022/06/04 04:46:58;;;;;;;8.07;3.80;;;;;;;20.64;62.88;101031.09;4941120;28;20050;-71
2022/06/04 04:49:24;;;;;;;6.13;3.72;;;;;;;20.42;62.64;100967.75;4951525;28;20039;-73
2022/06/04 04:51:51;;;;;;;7.32;4.00;;;;;;;20.96;61.76;101034.50;4950540;28;20053;-72
2022/06/04 04:54:18;;;;;;;7.88;4.13;;;;;;;20.72;62.02;100983.72;4945777;28;20055;-72
2022/06/04 04:56:44;;;;;;;7.82;4.57;;;;;;;21.39;61.47;101065.09;4950996;28;20131;-72
2022/06/04 04:59:10;;;;;;;5.78;4.20;;;;;;;21.36;61.21;101049.19;4936070;28;20114;-72
2022/06/04 05:01:36;;;;;;;6.63;4.63;;;;;;;21.24;61.07;100976.59;4955053;28;20085;-72
2022/06/04 05:04:02;;;;;;;8.20;5.25;;;;;;;21.42;61.22;100992.91;4947695;28;20063;-72
2022/06/04 05:06:28;;;;;;;11.77;4.43;;;;;;;21.89;60.41;101046.41;4947159;28;20061;-72
2022/06/04 05:08:54;;;;;;;13.02;6.80;;;;;;;22.34;59.62;101053.66;4950500;28;20043;-72
2022/06/04 05:11:22;;;;;;;5.60;4.25;;;;;;;22.34;59.26;101051.00;4950229;28;20590;-72
2022/06/04 05:13:49;;;;;;;12.02;5.70;;;;;;;22.33;57.84;100975.22;4952138;28;20051;-72
2022/06/04 05:16:26;;;;;;;9.20;5.65;;;;;;;22.34;58.22;100978.78;4941289;28;20113;-73
2022/06/04 05:18:53;;;;;;;6.93;5.15;;;;;;;22.99;57.18;101048.44;4910316;28;20055;-72
2022/06/04 05:21:27;;;;;;;7.18;4.18;;;;;;;22.99;57.56;101040.41;4936310;28;20182;-72
2022/06/04 05:23:56;;;;;;;6.90;4.53;;;;;;;23.43;56.47;101037.63;4951467;28;20492;-73
2022/06/04 05:26:23;;;;;;;8.05;4.13;;;;;;;23.30;56.43;100994.47;4952600;28;20050;-72
2022/06/04 05:28:49;;;;;;;14.48;5.07;;;;;;;23.47;55.54;101034.75;4938859;28;20089;-73
2022/06/04 05:31:16;;;;;;;12.88;5.22;;;;;;;23.30;56.48;101000.69;4953165;28;20051;-73
2022/06/04 05:33:44;;;;;;;6.82;4.05;;;;;;;23.63;56.26;101023.38;4947858;28;20047;-72
2022/06/04 05:36:10;;;;;;;6.22;4.32;;;;;;;23.97;55.78;101041.50;4954433;28;20043;-73
2022/06/04 05:38:36;;;;;;;5.53;4.13;;;;;;;24.09;55.89;101051.69;4950818;28;20054;-73
2022/06/04 05:41:06;;;;;;;8.85;4.63;;;;;;;23.37;55.66;100961.97;4955862;28;20066;-72
2022/06/04 05:43:33;;;;;;;8.80;4.88;;;;;;;23.68;55.73;101038.28;4951409;28;20042;-73
2022/06/04 05:46:04;;;;;;;7.47;5.25;;;;;;;23.68;56.00;100990.06;4959004;28;20042;-73
2022/06/04 05:48:30;;;;;;;6.20;4.43;;;;;;;24.51;55.67;101042.56;4952579;28;20073;-73
2022/06/04 05:51:04;;;;;;;10.68;5.57;;;;;;;24.57;54.28;101057.50;4947878;28;20067;-73
2022/06/04 05:53:30;;;;;;;8.07;4.60;;;;;;;24.81;55.63;101058.13;4950932;28;20058;-72
2022/06/04 05:55:57;;;;;;;7.20;5.03;;;;;;;24.85;54.48;101046.28;4953449;28;20043;-73
2022/06/04 05:58:24;;;;;;;7.15;4.50;;;;;;;24.43;54.64;101009.84;4955339;28;20043;-72
2022/06/04 06:00:49;;;;;;;9.52;6.13;;;;;;;24.67;54.18;100986.31;4957335;28;20113;-72
2022/06/04 06:03:15;;;;;;;11.18;7.20;;;;;;;25.19;54.49;101055.38;4933756;28;21378;-72
2022/06/04 06:05:46;;;;;;;5.82;4.22;;;;;;;24.79;54.75;100982.16;4954739;28;20050;-72
2022/06/04 06:08:14;;;;;;;9.93;5.10;;;;;;;25.00;54.68;101015.97;4952197;28;20142;-72
2022/06/04 06:10:42;;;;;;;9.55;5.97;;;;;;;24.88;54.65;100991.56;4945948;28;21676;-72
2022/06/04 06:13:08;;;;;;;15.40;6.05;;;;;;;25.07;54.13;101046.06;4941737;28;20173;-73
2022/06/04 06:15:36;;;;;;;8.55;5.63;;;;;;;24.66;54.87;100991.78;4948519;28;20044;-73
2022/06/04 06:18:02;;;;;;;6.63;4.47;;;;;;;25.27;54.76;101054.03;4944256;28;20055;-73
2022/06/04 06:20:28;;;;;;;19.25;7.28;;;;;;;24.92;56.03;100972.56;4939426;28;20085;-71
2022/06/04 06:22:54;;;;;;;16.13;6.93;;;;;;;25.53;55.26;101053.66;4948724;28;20051;-71
2022/06/04 06:25:21;;;;;;;17.85;6.75;;;;;;;25.34;54.99;101062.66;4946608;28;20050;-72
2022/06/04 06:27:47;;;;;;;79.00;11.93;;;;;;;25.59;55.24;101048.81;4921892;28;20091;-72
2022/06/04 06:30:14;;;;;;;19.25;6.68;;;;;;;25.28;54.85;101003.84;4949217;28;20569;-71
2022/06/04 06:32:41;;;;;;;10.77;6.30;;;;;;;25.48;55.69;101057.44;4944636;28;20186;-72
2022/06/04 06:35:08;;;;;;;14.30;7.85;;;;;;;25.26;55.79;100997.69;4947830;28;20039;-71
2022/06/04 06:37:34;;;;;;;14.55;8.10;;;;;;;25.43;55.53;101053.25;4952442;28;20058;-72
2022/06/04 06:40:00;;;;;;;7.93;5.72;;;;;;;25.79;55.52;101055.81;4952258;28;20034;-73
2022/06/04 06:42:25;;;;;;;9.73;5.63;;;;;;;25.67;56.79;101046.59;4936857;28;20102;-73
2022/06/04 06:44:52;;;;;;;8.70;5.60;;;;;;;25.31;56.91;100967.91;4953122;28;20125;-72
2022/06/04 06:47:19;;;;;;;5.03;3.90;;;;;;;25.01;55.64;100996.25;4953060;28;20058;-72
2022/06/04 06:49:45;;;;;;;6.00;4.47;;;;;;;25.22;55.91;100982.69;4948740;28;20039;-73
2022/06/04 06:52:19;;;;;;;6.00;4.43;;;;;;;25.29;57.43;100981.44;4955917;28;20205;-73
2022/06/04 06:54:46;;;;;;;12.50;7.57;;;;;;;25.48;53.54;100976.81;4956732;28;20044;-73
2022/06/04 06:57:16;;;;;;;12.98;5.38;;;;;;;25.33;54.19;100980.28;4950522;28;20137;-73
2022/06/04 06:59:43;;;;;;;8.75;5.93;;;;;;;26.15;55.59;101033.28;4952227;28;20063;-73
2022/06/04 07:02:09;;;;;;;9.90;4.72;;;;;;;25.85;54.84;101034.00;4927018;28;20487;-73
2022/06/04 07:04:35;;;;;;;14.45;6.05;;;;;;;26.04;54.76;101039.25;4936820;28;20993;-71
2022/06/04 07:07:02;;;;;;;16.33;6.78;;;;;;;25.86;54.13;100962.25;4948389;28;20070;-71
2022/06/04 07:09:33;;;;;;;8.60;6.20;;;;;;;25.68;56.07;100945.28;4949963;28;20058;-71
2022/06/04 07:12:00;;;;;;;18.93;7.37;;;;;;;26.17;56.00;101030.50;4947657;28;20070;-72
2022/06/04 07:14:25;;;;;;;16.05;6.80;;;;;;;26.00;54.26;101023.38;4943134;28;20055;-71
2022/06/04 07:16:53;;;;;;;11.38;5.30;;;;;;;25.99;58.71;101027.00;4942642;28;20062;-72
2022/06/04 07:19:21;;;;;;;6.78;3.95;;;;;;;25.36;60.79;101009.72;4927970;28;20043;-71
2022/06/04 07:21:48;;;;;;;13.82;7.30;;;;;;;25.62;57.23;100957.25;4948399;28;20114;-74
2022/06/04 07:24:14;;;;;;;150.15;86.97;;;;;;;26.03;58.77;101010.63;4944413;28;20404;-73
2022/06/04 07:26:41;;;;;;;13.07;7.28;;;;;;;26.41;54.97;101021.09;4926238;28;20055;-70
2022/06/04 07:29:07;;;;;;;7.65;4.63;;;;;;;25.47;59.08;101004.66;4942091;28;20043;-72
2022/06/04 07:31:34;;;;;;;7.25;5.82;;;;;;;25.45;55.86;100947.44;4930618;28;20050;-71
2022/06/04 07:34:00;;;;;;;11.15;6.95;;;;;;;25.58;54.40;100947.63;4943399;28;20043;-71
2022/06/04 07:36:32;;;;;;;12.23;6.30;;;;;;;25.81;54.88;100932.06;4930030;28;20058;-71
2022/06/04 07:38:58;;;;;;;10.43;6.70;;;;;;;26.72;55.27;101008.59;4931119;28;20129;-71
2022/06/04 07:41:25;;;;;;;13.85;9.13;;;;;;;26.89;54.23;101015.66;4927082;28;20043;-71
2022/06/04 07:43:52;;;;;;;13.60;10.13;;;;;;;27.02;53.64;101016.69;4946502;28;20062;-71
2022/06/04 07:46:18;;;;;;;10.05;7.10;;;;;;;26.86;53.25;100994.31;4943465;28;20070;-73
2022/06/04 07:48:44;;;;;;;12.85;7.60;;;;;;;26.73;53.07;101013.00;4949584;28;20062;-72
2022/06/04 07:51:10;;;;;;;11.98;6.30;;;;;;;26.65;55.56;101007.22;4929954;28;20499;-71
2022/06/04 07:53:36;;;;;;;13.27;6.45;;;;;;;26.64;54.58;101003.63;4947973;28;20055;-72
2022/06/04 07:56:10;;;;;;;13.13;7.55;;;;;;;26.16;53.58;100946.25;4944746;28;20070;-72
2022/06/04 07:58:36;;;;;;;12.55;7.88;;;;;;;26.42;54.51;101021.94;4932099;28;20103;-72
2022/06/04 08:01:03;;;;;;;16.80;7.55;;;;;;;26.26;54.14;101000.41;4949250;28;20103;-72
2022/06/04 08:03:37;;;;;;;13.65;7.30;;;;;;;26.31;54.14;100949.88;4940486;28;20054;-71
2022/06/04 08:06:05;;;;;;;7.78;5.72;;;;;;;26.84;52.84;101015.06;4942624;28;20137;-73
2022/06/04 08:08:32;;;;;;;10.77;5.30;;;;;;;26.23;53.37;100953.03;4937961;28;20048;-71
2022/06/04 08:10:59;;;;;;;12.52;5.63;;;;;;;26.64;53.54;101002.75;4940249;28;20047;-72
2022/06/04 08:13:26;;;;;;;9.65;5.50;;;;;;;26.27;54.57;101016.47;4940315;28;20212;-73
2022/06/04 08:15:56;;;;;;;7.80;5.28;;;;;;;26.26;55.59;101001.25;4938471;28;20047;-72
2022/06/04 08:18:21;;;;;;;8.38;5.65;;;;;;;26.77;53.02;101006.50;4921580;28;20050;-73
2022/06/04 08:20:47;;;;;;;16.77;5.28;;;;;;;26.30;56.21;100997.47;4939561;28;20053;-72
2022/06/04 08:23:13;;;;;;;21.40;6.53;;;;;;;25.79;57.48;100972.47;4939465;28;20066;-73
2022/06/04 08:25:40;;;;;;;8.02;5.85;;;;;;;26.53;55.82;100989.91;4943032;28;20047;-73
2022/06/04 08:28:06;;;;;;;11.65;6.75;;;;;;;26.64;54.47;100943.53;4933028;28;20046;-73
2022/06/04 08:30:32;;;;;;;8.07;4.82;;;;;;;27.41;53.69;100996.41;4939265;28;20047;-72
2022/06/04 08:32:58;;;;;;;8.20;5.95;;;;;;;27.28;52.60;100993.59;4939540;28;20275;-74
2022/06/04 08:35:24;;;;;;;15.73;9.95;;;;;;;27.01;54.04;100990.69;4940259;28;20082;-73
2022/06/04 08:37:50;;;;;;;14.43;6.05;;;;;;;26.94;52.46;100928.25;4936529;28;20043;-74
2022/06/04 08:40:32;;;;;;;22.65;7.30;;;;;;;27.02;51.16;100934.97;4945797;28;20038;-72
2022/06/04 08:43:04;;;;;;;8.40;5.78;;;;;;;26.81;53.23;100940.72;4943009;28;20062;-73
2022/06/04 08:45:30;;;;;;;12.23;5.85;;;;;;;27.22;53.59;100985.88;4948125;28;20092;-73
2022/06/04 08:47:55;;;;;;;9.95;4.80;;;;;;;27.39;51.73;100979.44;4951538;28;20047;-73
2022/06/04 08:50:26;;;;;;;6.82;5.13;;;;;;;27.89;51.17;100985.41;4952235;28;20535;-73
2022/06/04 08:52:58;;;;;;;11.07;5.57;;;;;;;28.04;49.55;100937.69;4949157;28;20042;-73
2022/06/04 08:58:54;;;;;;;9.80;6.60;;;;;;;28.12;49.87;100925.44;4948647;28;20053;-74
2022/06/04 09:01:27;;;;;;;12.93;7.00;;;;;;;28.92;49.71;100979.53;4931590;28;20443;-73
2022/06/04 09:04:29;;;;;;;16.40;8.27;;;;;;;27.41;52.58;100977.53;4934647;28;20046;-73
2022/06/04 09:07:09;;;;;;;19.27;9.30;;;;;;;28.25;50.02;100914.69;4948337;28;20726;-73
2022/06/04 09:09:55;;;;;;;20.02;8.15;;;;;;;28.37;50.04;100916.56;4948071;28;20051;-74
2022/06/04 09:12:34;;;;;;;11.77;6.05;;;;;;;28.95;48.99;100968.50;4950299;28;20055;-73
2022/06/04 09:15:08;;;;;;;11.20;6.60;;;;;;;28.10;48.41;100889.56;4949393;28;20102;-73
2022/06/04 09:17:42;;;;;;;8.90;6.55;;;;;;;29.16;47.66;100909.44;4948342;28;20138;-73
2022/06/04 09:20:19;;;;;;;10.05;6.75;;;;;;;29.05;46.22;100964.19;4946771;28;20502;-73
2022/06/04 09:22:47;;;;;;;10.63;6.72;;;;;;;28.30;47.81;100915.22;4947131;28;20074;-73
2022/06/04 09:25:15;;;;;;;17.50;8.98;;;;;;;28.89;46.08;100955.41;4951499;28;20041;-73
2022/06/04 09:28:17;;;;;;;19.02;9.77;;;;;;;29.36;45.63;100929.69;4948647;28;20062;-73
2022/06/04 09:31:17;;;;;;;11.10;6.47;;;;;;;29.36;46.42;100945.91;4949633;28;20062;-74
2022/06/04 09:33:51;;;;;;;13.15;6.57;;;;;;;28.60;45.82;100958.25;4933994;28;20043;-71
2022/06/04 09:36:22;;;;;;;13.23;7.15;;;;;;;27.33;48.24;100889.06;4947289;28;20051;-73
2022/06/04 09:39:00;;;;;;;8.25;6.10;;;;;;;27.47;50.66;100928.66;4952565;28;20059;-73
2022/06/04 09:41:30;;;;;;;17.65;7.97;;;;;;;28.21;47.60;100945.53;4950560;28;20051;-73
2022/06/04 09:44:08;;;;;;;14.77;8.88;;;;;;;27.84;47.82;100909.28;4949026;28;20095;-73
2022/06/04 09:46:35;;;;;;;9.10;6.85;;;;;;;28.13;48.17;100883.97;4948059;28;20081;-72
2022/06/04 09:49:11;;;;;;;45.42;14.73;;;;;;;28.82;47.89;100927.97;4949410;28;20097;-71
2022/06/04 09:51:42;;;;;;;17.85;10.80;;;;;;;29.95;47.39;100942.63;4943688;28;20048;-72
2022/06/04 09:54:28;;;;;;;16.05;8.50;;;;;;;29.38;47.55;100937.66;4932549;28;20075;-72
2022/06/04 09:56:57;;;;;;;24.45;13.85;;;;;;;30.34;45.95;100932.53;4946665;28;20075;-73
2022/06/04 09:59:32;;;;;;;24.85;12.60;;;;;;;30.66;45.07;100926.53;4920429;28;20051;-72
2022/06/04 10:02:01;;;;;;;15.25;8.85;;;;;;;30.06;44.55;100923.75;4926127;28;20090;-72
2022/06/04 10:04:39;;;;;;;47.70;16.70;;;;;;;29.67;46.59;100873.41;4944907;28;20054;-73
2022/06/04 10:07:08;;;;;;;32.30;15.95;;;;;;;30.33;43.06;100901.03;4947936;28;20050;-73
2022/06/04 10:09:56;;;;;;;31.83;15.45;;;;;;;29.43;47.36;100920.16;4950251;28;20098;-71
2022/06/04 10:13:42;;;;;;;18.80;10.65;;;;;;;29.42;46.24;100879.69;4948805;28;20082;-72
2022/06/04 10:15:32;;;;;;;28.65;14.13;;;;;;;29.69;46.58;100919.28;4943624;28;20129;-72
2022/06/04 10:18:25;;;;;;;21.13;9.77;;;;;;;30.74;44.95;100918.66;4936096;28;20055;-74
2022/06/04 10:21:20;;;;;;;38.55;17.38;;;;;;;30.70;42.90;100926.19;4942592;28;20051;-72
2022/06/04 10:23:49;;;;;;;20.00;8.15;;;;;;;29.04;47.78;100907.56;4931405;28;20387;-73
2022/06/04 10:26:41;;;;;;;19.40;12.45;;;;;;;29.27;47.77;100903.28;4931101;28;20039;-73
2022/06/04 10:29:23;;;;;;;19.63;11.02;;;;;;;28.94;47.22;100868.63;4945184;28;20133;-72
2022/06/04 10:32:14;;;;;;;18.98;14.57;;;;;;;29.14;47.40;100915.94;4944945;28;20089;-72
2022/06/04 10:34:47;;;;;;;10.13;6.90;;;;;;;27.88;47.53;100860.41;4941232;28;20644;-71
2022/06/04 10:37:38;;;;;;;14.75;7.78;;;;;;;28.76;47.47;100911.31;4943510;28;20555;-73
2022/06/04 10:40:41;;;;;;;10.63;6.23;;;;;;;28.23;47.06;100916.59;4937535;28;20058;-72
2022/06/04 10:43:25;;;;;;;19.45;10.30;;;;;;;28.58;49.03;100913.41;4916933;28;20047;-72
2022/06/04 10:46:20;;;;;;;22.58;11.48;;;;;;;28.21;50.09;100861.84;4942893;28;20115;-72
2022/06/04 10:49:04;;;;;;;12.40;6.82;;;;;;;27.74;47.32;100868.53;4944471;28;20057;-73
2022/06/04 10:51:48;;;;;;;13.50;8.40;;;;;;;28.13;50.29;100869.63;4940132;28;20086;-73
2022/06/04 10:54:19;;;;;;;15.63;8.43;;;;;;;27.58;50.73;100876.72;4940334;28;20051;-72
2022/06/04 10:57:13;;;;;;;24.67;12.50;;;;;;;28.28;47.56;100867.72;4942266;28;20774;-71
2022/06/04 10:59:51;;;;;;;32.58;15.88;;;;;;;28.43;47.23;100823.50;4945798;28;20066;-73
2022/06/04 11:02:31;;;;;;;55.08;22.63;;;;;;;28.66;46.19;100835.47;4941801;28;20125;-71
2022/06/04 11:05:02;;;;;;;54.90;21.23;;;;;;;29.19;46.96;100851.59;4942551;28;20055;-72
2022/06/04 11:07:49;;;;;;;53.25;22.38;;;;;;;29.28;48.78;100809.53;4944459;28;20046;-71
2022/06/04 11:10:18;;;;;;;53.10;20.75;;;;;;;29.80;44.95;100786.78;4945184;28;20039;-71
2022/06/04 11:13:04;;;;;;;20.90;12.25;;;;;;;28.05;48.11;100793.69;4941010;28;20055;-71
2022/06/04 11:15:38;;;;;;;40.45;19.80;;;;;;;28.62;48.60;100851.00;4938520;28;21765;-71
2022/06/04 11:18:16;;;;;;;63.53;27.30;;;;;;;28.67;45.74;100855.22;4950118;28;20039;-72
2022/06/04 11:20:54;;;;;;;44.10;18.25;;;;;;;28.65;46.90;100792.34;4933897;28;20054;-72
2022/06/04 11:23:28;;;;;;;16.63;9.85;;;;;;;27.64;47.97;100783.81;4946262;28;20082;-72
2022/06/04 11:26:01;;;;;;;24.20;8.45;;;;;;;27.56;50.45;100781.63;4942255;28;20607;-72
2022/06/04 11:28:27;;;;;;;19.38;10.75;;;;;;;27.88;47.01;100829.91;4926957;28;20235;-72
2022/06/04 11:31:14;;;;;;;59.90;22.08;;;;;;;27.44;47.59;100694.34;4939642;28;20604;-72
2022/06/04 11:34:13;;;;;;;81.68;27.08;;;;;;;28.38;49.21;100779.75;4934666;28;20597;-72
2022/06/04 11:37:19;;;;;;;72.57;28.00;;;;;;;29.07;45.65;100829.00;4936464;28;20051;-72
2022/06/04 11:40:07;;;;;;;7.22;5.80;;;;;;;28.18;46.88;100824.28;4935802;28;20062;-72
2022/06/04 11:42:53;;;;;;;8.02;5.63;;;;;;;27.96;46.04;100827.56;4934822;28;20567;-72
2022/06/04 11:45:33;;;;;;;22.13;13.27;;;;;;;28.22;47.65;100825.81;4935447;28;20078;-72
2022/06/04 11:48:21;;;;;;;10.63;7.40;;;;;;;28.04;47.47;100776.66;4938716;28;20051;-72
2022/06/04 11:51:02;;;;;;;10.85;8.18;;;;;;;28.24;49.56;100814.91;4940504;28;20050;-72
2022/06/04 11:53:50;;;;;;;25.55;14.27;;;;;;;27.89;49.98;100761.50;4932598;28;20067;-72